createdAt,value
2023-01-08T00:01:46.050Z,8.40
2023-01-08T00:04:18.144Z,8.77
2023-01-08T00:06:45.479Z,9.98
2023-01-08T00:09:13.112Z,9.35
2023-01-08T00:11:40.994Z,10.27
2023-01-08T00:14:08.253Z,9.40
2023-01-08T00:16:35.539Z,8.52
2023-01-08T00:19:03.018Z,9.27
2023-01-08T00:21:30.182Z,8.80
2023-01-08T00:23:57.800Z,8.93
2023-01-08T00:26:25.429Z,9.50
2023-01-08T00:28:53.046Z,9.48
2023-01-08T00:31:20.265Z,9.20
2023-01-08T00:33:47.479Z,9.00
2023-01-08T00:36:19.561Z,8.93
2023-01-08T00:38:46.972Z,9.52
2023-01-08T00:41:15.168Z,9.07
2023-01-08T00:43:42.392Z,8.50
2023-01-08T00:46:10.661Z,9.40
2023-01-08T00:48:38.928Z,8.35
2023-01-08T00:51:07.628Z,8.50
2023-01-08T00:53:49.303Z,8.70
2023-01-08T00:56:16.645Z,8.25
2023-01-08T00:58:46.595Z,8.00
2023-01-08T01:01:14.919Z,8.80
2023-01-08T01:03:42.496Z,8.32
2023-01-08T01:06:11.674Z,8.50
2023-01-08T01:08:38.999Z,9.50
2023-01-08T01:11:17.641Z,6.20
2023-01-08T01:13:44.885Z,8.43
2023-01-08T01:16:12.061Z,8.95
2023-01-08T01:18:39.354Z,7.75
2023-01-08T01:21:26.864Z,6.47
2023-01-08T01:23:55.331Z,8.02
2023-01-08T01:26:22.606Z,8.98
2023-01-08T01:28:51.787Z,8.35
2023-01-08T01:31:19.351Z,8.55
2023-01-08T01:33:46.707Z,9.00
2023-01-08T01:36:14.791Z,8.38
2023-01-08T01:38:46.074Z,8.30
2023-01-08T01:41:31.998Z,8.25
2023-01-08T01:44:41.505Z,8.45
2023-01-08T01:47:25.946Z,8.68
2023-01-08T01:50:08.167Z,8.55
2023-01-08T01:52:40.211Z,8.48
2023-01-08T01:55:07.861Z,8.43
2023-01-08T01:57:35.104Z,8.63
2023-01-08T02:00:04.542Z,8.27
2023-01-08T02:02:39.435Z,9.15
2023-01-08T02:05:07.039Z,8.80
2023-01-08T02:07:56.525Z,9.30
2023-01-08T02:11:13.309Z,8.65
2023-01-08T02:13:46.393Z,9.48
2023-01-08T02:16:21.536Z,8.18
2023-01-08T02:18:57.946Z,8.77
2023-01-08T02:21:56.211Z,8.60
2023-01-08T02:24:40.078Z,8.40
2023-01-08T02:27:07.335Z,8.47
2023-01-08T02:29:34.487Z,8.93
2023-01-08T02:32:01.967Z,9.30
2023-01-08T02:34:32.056Z,8.65
2023-01-08T02:36:59.380Z,8.40
2023-01-08T02:39:47.651Z,8.90
2023-01-08T02:42:35.753Z,8.88
2023-01-08T02:45:05.892Z,8.52
2023-01-08T02:48:13.963Z,8.80
2023-01-08T02:51:06.697Z,8.27
2023-01-08T02:53:37.719Z,9.30
2023-01-08T02:56:08.460Z,9.27
2023-01-08T02:58:36.157Z,9.07
2023-01-08T03:01:04.424Z,8.30
2023-01-08T03:03:31.707Z,9.23
2023-01-08T03:06:07.618Z,8.77
2023-01-08T03:08:38.629Z,8.18
2023-01-08T03:11:17.517Z,9.82
2023-01-08T03:14:05.850Z,10.05
2023-01-08T03:16:41.990Z,9.40
2023-01-08T03:19:25.667Z,9.93
2023-01-08T03:21:52.890Z,8.88
2023-01-08T03:24:26.883Z,9.13
2023-01-08T03:26:57.852Z,9.23
2023-01-08T03:29:25.141Z,9.43
2023-01-08T03:31:59.230Z,12.15
2023-01-08T03:34:32.051Z,13.82
2023-01-08T03:37:02.972Z,14.88
2023-01-08T03:39:34.166Z,14.30
2023-01-08T03:42:04.683Z,14.25
2023-01-08T03:44:32.193Z,14.13
2023-01-08T03:46:59.521Z,14.15
2023-01-08T03:49:27.195Z,14.80
2023-01-08T03:51:54.539Z,15.80
2023-01-08T03:54:24.711Z,15.85
2023-01-08T03:56:53.039Z,13.57
2023-01-08T03:59:20.144Z,14.73
2023-01-08T04:01:48.495Z,15.50
2023-01-08T04:04:21.513Z,13.32
2023-01-08T04:06:48.836Z,14.55
2023-01-08T04:09:16.037Z,14.13
2023-01-08T04:11:47.854Z,14.82
2023-01-08T04:14:15.062Z,14.10
2023-01-08T04:16:42.231Z,15.07
2023-01-08T04:19:14.194Z,14.93
2023-01-08T04:21:41.494Z,14.55
2023-01-08T04:24:08.831Z,13.98
2023-01-08T04:26:35.987Z,14.13
2023-01-08T04:29:04.092Z,14.93
2023-01-08T04:31:31.883Z,14.32
2023-01-08T04:33:59.198Z,14.25
2023-01-08T04:36:26.423Z,14.05
2023-01-08T04:38:53.648Z,14.50
2023-01-08T04:41:20.899Z,13.98
2023-01-08T04:43:48.070Z,12.63
2023-01-08T04:46:15.395Z,13.55
2023-01-08T04:48:42.687Z,12.30
2023-01-08T04:51:12.982Z,17.40
2023-01-08T04:53:41.485Z,21.77
2023-01-08T04:56:10.317Z,18.48
2023-01-08T04:58:37.813Z,17.60
2023-01-08T05:01:13.824Z,17.05
2023-01-08T05:03:41.147Z,15.98
2023-01-08T05:06:08.436Z,17.63
2023-01-08T05:08:35.695Z,17.75
2023-01-08T05:11:03.217Z,19.23
2023-01-08T05:13:30.700Z,18.85
2023-01-08T05:16:01.656Z,18.48
2023-01-08T05:18:29.738Z,19.38
2023-01-08T05:21:05.068Z,17.58
2023-01-08T05:23:32.762Z,18.50
2023-01-08T05:26:00.745Z,16.52
2023-01-08T05:28:28.224Z,17.02
2023-01-08T05:30:55.544Z,16.50
2023-01-08T05:33:25.098Z,16.77
2023-01-08T05:35:52.393Z,17.05
2023-01-08T05:38:19.785Z,17.67
2023-01-08T05:40:47.061Z,19.30
2023-01-08T05:43:14.288Z,17.08
2023-01-08T05:45:41.612Z,17.38
2023-01-08T05:48:08.882Z,17.10
2023-01-08T05:50:36.085Z,17.58
2023-01-08T05:53:07.971Z,16.90
2023-01-08T05:55:35.510Z,18.25
2023-01-08T05:58:06.241Z,17.13
2023-01-08T06:00:33.884Z,16.83
2023-01-08T06:03:09.643Z,16.67
2023-01-08T06:05:36.885Z,18.10
2023-01-08T06:08:04.331Z,17.02
2023-01-08T06:10:31.799Z,17.73
2023-01-08T06:12:58.973Z,18.40
2023-01-08T06:15:27.242Z,21.50
2023-01-08T06:17:57.755Z,20.33
2023-01-08T06:20:24.918Z,22.27
2023-01-08T06:22:54.269Z,20.80
2023-01-08T06:25:21.521Z,19.25
2023-01-08T06:27:52.794Z,22.83
2023-01-08T06:30:20.031Z,24.25
2023-01-08T06:32:47.223Z,24.95
2023-01-08T06:35:14.383Z,26.90
2023-01-08T06:37:44.575Z,30.13
2023-01-08T06:40:12.172Z,26.80
2023-01-08T06:42:39.431Z,27.13
2023-01-08T06:45:07.996Z,26.40
2023-01-08T06:47:35.293Z,25.48
2023-01-08T06:50:02.632Z,29.02
2023-01-08T06:52:29.877Z,30.67
2023-01-08T06:54:57.126Z,30.30
2023-01-08T06:57:25.474Z,27.75
2023-01-08T06:59:52.671Z,30.27
2023-01-08T07:02:20.127Z,30.92
2023-01-08T07:04:47.566Z,31.20
2023-01-08T07:07:15.315Z,32.63
2023-01-08T07:09:42.871Z,32.97
2023-01-08T07:12:16.898Z,31.13
2023-01-08T07:14:45.559Z,30.52
2023-01-08T07:17:12.964Z,31.13
2023-01-08T07:19:40.381Z,30.35
2023-01-08T07:22:07.570Z,28.02
2023-01-08T07:24:34.827Z,26.60
2023-01-08T07:27:02.009Z,27.85
2023-01-08T07:29:30.373Z,28.52
2023-01-08T07:31:57.576Z,27.98
2023-01-08T07:34:24.828Z,25.05
2023-01-08T07:36:52.200Z,26.20
2023-01-08T07:39:19.493Z,24.85
2023-01-08T07:41:46.764Z,29.42
2023-01-08T07:44:14.010Z,31.48
2023-01-08T07:46:49.789Z,32.30
2023-01-08T07:49:17.065Z,30.27
2023-01-08T07:51:44.296Z,27.80
2023-01-08T07:54:11.689Z,30.48
2023-01-08T07:56:38.920Z,28.42
2023-01-08T07:59:06.104Z,27.58
2023-01-08T08:01:33.809Z,27.05
2023-01-08T08:04:01.099Z,26.48
2023-01-08T08:06:28.342Z,26.27
2023-01-08T08:08:57.998Z,26.90
2023-01-08T08:11:25.362Z,27.33
2023-01-08T08:13:54.688Z,26.67
2023-01-08T08:16:25.724Z,27.60
2023-01-08T08:18:53.209Z,25.77
2023-01-08T08:21:20.381Z,28.42
2023-01-08T08:23:47.593Z,29.05
2023-01-08T08:26:14.736Z,30.27
2023-01-08T08:28:41.977Z,33.17
2023-01-08T08:31:09.535Z,32.13
2023-01-08T08:33:36.990Z,32.03
2023-01-08T08:36:04.434Z,32.05
2023-01-08T08:38:31.659Z,33.70
2023-01-08T08:40:58.983Z,32.13
2023-01-08T08:43:26.159Z,33.15
2023-01-08T08:45:57.000Z,35.28
2023-01-08T08:48:24.480Z,35.53
2023-01-08T08:50:51.869Z,35.25
2023-01-08T08:53:19.578Z,39.50
2023-01-08T08:55:46.718Z,39.78
2023-01-08T08:58:14.051Z,43.88
2023-01-08T09:00:42.597Z,46.70
2023-01-08T09:03:14.868Z,48.22
2023-01-08T09:05:43.214Z,48.97
2023-01-08T09:08:10.922Z,51.70
2023-01-08T09:10:40.019Z,51.22
2023-01-08T09:13:07.432Z,54.97
2023-01-08T09:15:34.688Z,58.72
2023-01-08T09:18:01.940Z,60.80
2023-01-08T09:20:29.139Z,59.55
2023-01-08T09:23:01.814Z,62.90
2023-01-08T09:25:29.809Z,68.85
2023-01-08T09:28:01.757Z,61.60
2023-01-08T09:30:48.488Z,59.17
2023-01-08T09:33:16.695Z,56.75
2023-01-08T09:35:44.467Z,58.88
2023-01-08T09:38:11.861Z,56.05
2023-01-08T09:40:44.236Z,52.67
2023-01-08T09:43:19.539Z,55.88
2023-01-08T09:46:00.148Z,56.15
2023-01-08T09:48:43.645Z,50.67
2023-01-08T09:51:17.956Z,54.95
2023-01-08T09:56:23.269Z,50.63
2023-01-08T09:58:59.929Z,46.17
2023-01-08T10:01:38.068Z,50.78
2023-01-08T10:04:18.683Z,50.42
2023-01-08T10:06:58.845Z,50.83
2023-01-08T10:09:32.990Z,50.88
2023-01-08T10:12:04.863Z,52.00
2023-01-08T10:14:46.494Z,49.47
2023-01-08T10:17:33.117Z,46.97
2023-01-08T10:20:12.937Z,45.67
2023-01-08T10:22:44.048Z,43.30
2023-01-08T10:25:26.126Z,46.60
2023-01-08T10:28:01.399Z,46.22
2023-01-08T10:30:37.833Z,54.45
2023-01-08T10:33:24.193Z,51.72
2023-01-08T10:36:00.569Z,50.22
2023-01-08T10:38:36.588Z,46.53
2023-01-08T10:41:05.937Z,48.38
2023-01-08T10:43:56.610Z,44.75
2023-01-08T10:46:28.978Z,44.03
2023-01-08T10:48:58.661Z,38.15
2023-01-08T10:51:31.801Z,38.65
2023-01-08T10:54:15.695Z,35.15
2023-01-08T10:56:47.862Z,17.60
2023-01-08T10:59:29.233Z,12.10
2023-01-08T11:02:33.117Z,8.82
2023-01-08T11:05:10.531Z,9.40
2023-01-08T11:07:40.564Z,8.45
2023-01-08T11:10:21.619Z,8.68
2023-01-08T11:12:50.190Z,8.40
2023-01-08T11:15:33.781Z,8.90
2023-01-08T11:18:23.951Z,8.48
2023-01-08T11:20:53.894Z,9.63
2023-01-08T11:23:28.604Z,9.43
2023-01-08T11:26:19.814Z,9.27
2023-01-08T11:29:06.197Z,9.15
2023-01-08T11:32:19.023Z,9.02
2023-01-08T11:35:04.433Z,9.57
2023-01-08T11:37:36.440Z,9.32
2023-01-08T11:40:18.866Z,8.77
2023-01-08T11:43:31.387Z,8.88
2023-01-08T11:46:17.865Z,8.98
2023-01-08T11:49:06.103Z,8.10
2023-01-08T11:52:11.788Z,8.73
2023-01-08T11:54:57.394Z,9.73
2023-01-08T11:57:43.564Z,9.10
2023-01-08T12:00:36.341Z,9.40
2023-01-08T12:03:22.345Z,9.13
2023-01-08T12:06:07.536Z,9.02
2023-01-08T12:09:02.950Z,8.93
2023-01-08T12:12:05.916Z,8.43
2023-01-08T12:15:24.855Z,8.75
2023-01-08T12:18:19.412Z,8.40
2023-01-08T12:21:10.678Z,9.32
2023-01-08T12:24:01.996Z,8.48
2023-01-08T12:26:39.039Z,9.07
2023-01-08T12:29:18.364Z,7.50
2023-01-08T12:32:02.992Z,7.65
2023-01-08T12:35:03.487Z,7.18
2023-01-08T12:37:51.934Z,7.88
2023-01-08T12:40:40.271Z,6.60
2023-01-08T12:43:21.585Z,8.02
2023-01-08T12:45:51.177Z,7.40
2023-01-08T12:48:25.072Z,7.90
2023-01-08T12:51:47.643Z,8.45
2023-01-08T12:54:39.233Z,9.20
2023-01-08T12:57:34.848Z,10.25
2023-01-08T13:00:04.490Z,11.77
2023-01-08T13:02:52.003Z,12.77
2023-01-08T13:05:19.278Z,13.40
2023-01-08T13:07:48.629Z,12.68
2023-01-08T13:10:41.655Z,13.20
2023-01-08T13:13:32.647Z,14.27
2023-01-08T13:16:12.249Z,13.10
2023-01-08T13:18:39.828Z,13.15
2023-01-08T13:21:07.885Z,12.27
2023-01-08T13:23:35.554Z,14.52
2023-01-08T13:26:06.221Z,12.38
2023-01-08T13:28:44.836Z,12.63
2023-01-08T13:31:21.363Z,12.35
2023-01-08T13:33:49.415Z,11.70
2023-01-08T13:36:25.795Z,11.93
2023-01-08T13:39:11.254Z,10.35
2023-01-08T13:42:22.826Z,10.77
2023-01-08T13:45:11.821Z,11.30
2023-01-08T13:47:42.871Z,11.05
2023-01-08T13:50:25.284Z,11.13
2023-01-08T13:53:03.050Z,11.55
2023-01-08T13:55:42.141Z,12.10
2023-01-08T13:58:16.307Z,11.20
2023-01-08T14:03:35.763Z,9.40
2023-01-08T14:06:21.832Z,8.18
2023-01-08T14:08:56.873Z,8.85
2023-01-08T14:11:40.224Z,9.05
2023-01-08T14:14:12.856Z,8.95
2023-01-08T14:16:41.088Z,9.80
2023-01-08T14:19:08.591Z,9.75
2023-01-08T14:21:38.556Z,10.80
2023-01-08T14:24:06.496Z,12.05
2023-01-08T14:26:41.364Z,12.00
2023-01-08T14:29:15.228Z,13.00
2023-01-08T14:31:53.210Z,12.93
2023-01-08T14:34:26.037Z,17.05
2023-01-08T14:36:54.726Z,20.05
2023-01-08T14:39:35.615Z,22.35
2023-01-08T14:42:38.978Z,21.42
2023-01-08T14:45:21.489Z,24.75
2023-01-08T14:47:51.417Z,25.58
2023-01-08T14:50:27.157Z,53.08
2023-01-08T14:53:03.808Z,31.60
2023-01-08T14:55:31.324Z,21.92
2023-01-08T14:57:58.686Z,26.30
2023-01-08T15:00:28.840Z,18.20
2023-01-08T15:02:56.503Z,19.75
2023-01-08T15:05:31.450Z,22.33
2023-01-08T15:08:21.884Z,21.80
2023-01-08T15:11:23.913Z,21.50
2023-01-08T15:13:53.321Z,18.58
2023-01-08T15:16:29.302Z,16.90
2023-01-08T15:19:18.786Z,15.90
2023-01-08T15:21:47.428Z,15.88
2023-01-08T15:24:29.126Z,18.75
2023-01-08T15:26:56.274Z,10.70
2023-01-08T15:29:33.695Z,10.57
2023-01-08T15:32:16.905Z,10.15
2023-01-08T15:34:52.949Z,11.20
2023-01-08T15:37:23.259Z,10.85
2023-01-08T15:40:01.024Z,11.95
2023-01-08T15:45:49.038Z,12.90
2023-01-08T15:48:16.402Z,13.98
2023-01-08T15:50:44.416Z,12.73
2023-01-08T15:53:24.483Z,14.07
2023-01-08T15:55:51.928Z,10.82
2023-01-08T15:58:19.246Z,12.50
2023-01-08T16:00:46.757Z,10.60
2023-01-08T16:03:15.801Z,10.52
2023-01-08T16:05:43.133Z,9.82
2023-01-08T16:08:14.519Z,8.88
2023-01-08T16:10:41.842Z,8.48
2023-01-08T16:13:11.748Z,8.35
2023-01-08T16:15:39.843Z,8.30
2023-01-08T16:18:09.889Z,9.20
2023-01-08T16:20:42.128Z,8.48
2023-01-08T16:23:19.618Z,7.82
2023-01-08T16:25:46.912Z,7.50
2023-01-08T16:28:14.353Z,8.43
2023-01-08T16:30:42.709Z,8.70
2023-01-08T16:33:10.321Z,8.20
2023-01-08T16:35:37.611Z,7.72
2023-01-08T16:38:15.731Z,7.90
2023-01-08T16:40:46.281Z,9.52
2023-01-08T16:43:20.004Z,12.55
2023-01-08T16:45:49.478Z,9.02
2023-01-08T16:48:21.313Z,8.85
2023-01-08T16:50:48.823Z,7.55
2023-01-08T16:53:18.551Z,7.78
2023-01-08T16:55:45.775Z,8.13
2023-01-08T16:58:13.310Z,7.60
2023-01-08T17:00:40.747Z,8.85
2023-01-08T17:03:11.400Z,7.85
2023-01-08T17:05:41.070Z,8.40
2023-01-08T17:08:15.736Z,8.27
2023-01-08T17:10:44.082Z,8.02
2023-01-08T17:13:13.282Z,9.13
2023-01-08T17:15:40.715Z,11.10
2023-01-08T17:18:08.435Z,12.50
2023-01-08T17:20:36.809Z,11.52
2023-01-08T17:23:04.041Z,12.02
2023-01-08T17:25:32.338Z,9.60
2023-01-08T17:27:59.581Z,10.15
2023-01-08T17:30:26.841Z,10.73
2023-01-08T17:32:54.112Z,10.75
2023-01-08T17:35:24.432Z,10.93
2023-01-08T17:37:52.674Z,10.88
2023-01-08T17:40:19.876Z,9.57
2023-01-08T17:42:47.174Z,10.52
2023-01-08T17:45:14.525Z,10.82
2023-01-08T17:47:44.151Z,15.95
2023-01-08T17:50:11.790Z,14.10
2023-01-08T17:52:38.992Z,9.73
2023-01-08T17:55:06.525Z,12.15
2023-01-08T17:57:33.776Z,12.18
2023-01-08T18:00:01.181Z,13.43
2023-01-08T18:06:14.099Z,11.75
2023-01-08T18:08:41.638Z,12.32
2023-01-08T18:11:09.697Z,12.55
2023-01-08T18:13:37.190Z,9.98
2023-01-08T18:16:09.324Z,11.70
2023-01-08T18:18:36.964Z,12.23
2023-01-08T18:21:04.680Z,10.75
2023-01-08T18:23:31.975Z,9.85
2023-01-08T18:26:07.209Z,10.13
2023-01-08T18:28:34.725Z,9.88
2023-01-08T18:31:03.470Z,11.13
2023-01-08T18:33:30.695Z,14.75
2023-01-08T18:36:03.164Z,11.73
2023-01-08T18:38:30.420Z,14.70
2023-01-08T18:40:58.736Z,15.50
2023-01-08T18:43:26.872Z,14.98
2023-01-08T18:46:00.715Z,15.18
2023-01-08T18:48:31.427Z,13.73
2023-01-08T18:51:05.774Z,13.18
2023-01-08T18:53:37.962Z,15.13
2023-01-08T18:56:39.831Z,12.93
2023-01-08T18:59:12.524Z,12.10
2023-01-08T19:01:42.279Z,13.25
2023-01-08T19:04:15.964Z,12.85
2023-01-08T19:06:43.258Z,13.35
2023-01-08T19:09:10.472Z,12.07
2023-01-08T19:11:37.822Z,13.27
2023-01-08T19:14:05.091Z,13.00
2023-01-08T19:16:32.413Z,12.45
2023-01-08T19:19:02.784Z,11.23
2023-01-08T19:21:33.103Z,11.82
2023-01-08T19:24:02.894Z,12.13
2023-01-08T19:26:30.132Z,12.07
2023-01-08T19:28:57.466Z,11.07
2023-01-08T19:31:24.687Z,11.70
2023-01-08T19:33:52.851Z,11.50
2023-01-08T19:36:21.124Z,11.70
2023-01-08T19:38:48.432Z,11.32
2023-01-08T19:41:34.667Z,12.10
2023-01-08T19:44:02.012Z,13.00
2023-01-08T19:46:29.599Z,12.05
2023-01-08T19:48:58.195Z,13.55
2023-01-08T19:51:25.725Z,14.40
2023-01-08T19:53:53.454Z,14.18
2023-01-08T19:56:20.919Z,14.77
2023-01-08T19:58:48.191Z,18.05
2023-01-08T20:01:21.165Z,19.02
2023-01-08T20:03:48.608Z,20.35
2023-01-08T20:06:19.744Z,20.08
2023-01-08T20:08:48.582Z,18.45
2023-01-08T20:11:16.644Z,20.98
2023-01-08T20:13:43.974Z,20.95
2023-01-08T20:16:16.064Z,21.45
2023-01-08T20:18:43.565Z,20.70
2023-01-08T20:21:21.032Z,22.20
2023-01-08T20:23:48.345Z,22.13
2023-01-08T20:26:17.938Z,21.83
2023-01-08T20:28:45.875Z,23.13
2023-01-08T20:31:18.179Z,22.55
2023-01-08T20:33:46.838Z,25.25
2023-01-08T20:36:19.256Z,25.88
2023-01-08T20:38:46.971Z,23.33
2023-01-08T20:41:15.415Z,21.58
2023-01-08T20:43:42.597Z,22.88
2023-01-08T20:46:15.278Z,22.10
2023-01-08T20:48:47.698Z,23.55
2023-01-08T20:51:15.828Z,21.23
2023-01-08T20:53:43.128Z,19.35
2023-01-08T20:56:13.373Z,20.55
2023-01-08T20:58:43.033Z,21.40
2023-01-08T21:01:18.452Z,20.63
2023-01-08T21:03:50.305Z,19.90
2023-01-08T21:06:21.121Z,23.15
2023-01-08T21:08:54.299Z,24.25
2023-01-08T21:11:28.316Z,24.60
2023-01-08T21:13:56.226Z,24.13
2023-01-08T21:16:27.993Z,25.10
2023-01-08T21:18:56.004Z,25.17
2023-01-08T21:21:34.145Z,26.25
2023-01-08T21:24:07.218Z,24.25
2023-01-08T21:26:34.575Z,24.88
2023-01-08T21:29:06.469Z,24.48
2023-01-08T21:31:37.154Z,24.15
2023-01-08T21:34:04.814Z,23.27
2023-01-08T21:36:32.206Z,24.05
2023-01-08T21:39:00.863Z,23.60
2023-01-08T21:41:47.168Z,23.50
2023-01-08T21:44:43.400Z,22.58
2023-01-08T21:47:13.849Z,22.65
2023-01-08T21:49:41.193Z,22.80
2023-01-08T21:52:27.339Z,22.95
2023-01-08T21:54:58.084Z,21.90
2023-01-08T21:57:28.070Z,23.42
2023-01-08T21:59:58.526Z,21.52
2023-01-08T22:02:42.795Z,23.05
2023-01-08T22:05:21.404Z,22.42
2023-01-08T22:07:48.737Z,21.63
2023-01-08T22:10:16.305Z,20.88
2023-01-08T22:12:43.682Z,22.00
2023-01-08T22:15:11.323Z,22.35
2023-01-08T22:17:38.564Z,23.90
2023-01-08T22:20:08.161Z,22.65
2023-01-08T22:22:35.483Z,22.35
2023-01-08T22:25:05.622Z,23.25
2023-01-08T22:27:35.238Z,22.50
2023-01-08T22:30:02.543Z,22.80
2023-01-08T22:32:29.835Z,22.00
2023-01-08T22:34:57.009Z,22.15
2023-01-08T22:37:24.288Z,23.77
2023-01-08T22:39:51.546Z,19.77
2023-01-08T22:42:18.760Z,22.13
2023-01-08T22:44:45.989Z,23.80
2023-01-08T22:47:14.195Z,24.42
2023-01-08T22:49:41.437Z,23.23
2023-01-08T22:52:10.051Z,23.35
2023-01-08T22:54:38.674Z,23.65
2023-01-08T22:57:06.608Z,24.08
2023-01-08T22:59:34.155Z,25.40
2023-01-08T23:02:02.421Z,26.67
2023-01-08T23:04:29.674Z,25.10
2023-01-08T23:06:56.935Z,26.15
2023-01-08T23:09:24.247Z,25.98
2023-01-08T23:11:51.421Z,25.30
2023-01-08T23:14:18.718Z,24.13
2023-01-08T23:16:46.012Z,24.33
2023-01-08T23:19:14.027Z,24.25
2023-01-08T23:21:41.411Z,22.42
2023-01-08T23:24:14.854Z,25.85
2023-01-08T23:26:42.538Z,26.03
2023-01-08T23:29:10.732Z,24.63
2023-01-08T23:31:38.314Z,22.73
2023-01-08T23:34:08.407Z,24.75
2023-01-08T23:36:35.874Z,23.77
2023-01-08T23:39:06.077Z,29.30
2023-01-08T23:41:35.216Z,27.75
2023-01-08T23:44:11.426Z,26.30
2023-01-08T23:46:38.701Z,27.30
2023-01-08T23:49:07.285Z,28.60
2023-01-08T23:51:34.927Z,28.48
2023-01-08T23:54:09.795Z,30.15
2023-01-08T23:56:40.343Z,29.33
2023-01-08T23:59:10.233Z,25.83
